sensor_id;sensor_type;location;lat;lon;timestamp;temperature;humidity
16627;DHT22;8427;52.204;7.202;2023-07-20T00:00:46;17.00;77.30
16627;DHT22;8427;52.204;7.202;2023-07-20T00:03:15;17.10;77.50
16627;DHT22;8427;52.204;7.202;2023-07-20T00:05:45;17.10;77.80
16627;DHT22;8427;52.204;7.202;2023-07-20T00:08:14;17.10;77.30
16627;DHT22;8427;52.204;7.202;2023-07-20T00:10:42;17.10;76.60
16627;DHT22;8427;52.204;7.202;2023-07-20T00:13:11;17.10;77.10
16627;DHT22;8427;52.204;7.202;2023-07-20T00:15:39;17.00;77.40
16627;DHT22;8427;52.204;7.202;2023-07-20T00:18:07;17.00;77.50
16627;DHT22;8427;52.204;7.202;2023-07-20T00:20:37;16.90;77.60
16627;DHT22;8427;52.204;7.202;2023-07-20T00:23:05;16.90;77.70
16627;DHT22;8427;52.204;7.202;2023-07-20T00:25:33;16.80;78.20
16627;DHT22;8427;52.204;7.202;2023-07-20T00:28:01;16.70;78.10
16627;DHT22;8427;52.204;7.202;2023-07-20T00:30:29;16.70;78.50
16627;DHT22;8427;52.204;7.202;2023-07-20T00:32:57;16.70;78.60
16627;DHT22;8427;52.204;7.202;2023-07-20T00:35:25;16.80;77.70
16627;DHT22;8427;52.204;7.202;2023-07-20T00:37:55;16.80;78.20
16627;DHT22;8427;52.204;7.202;2023-07-20T00:40:22;16.90;78.20
16627;DHT22;8427;52.204;7.202;2023-07-20T00:42:51;16.90;78.20
16627;DHT22;8427;52.204;7.202;2023-07-20T00:45:19;17.00;78.20
16627;DHT22;8427;52.204;7.202;2023-07-20T00:47:47;17.00;78.70
16627;DHT22;8427;52.204;7.202;2023-07-20T00:50:15;17.00;79.00
16627;DHT22;8427;52.204;7.202;2023-07-20T00:52:44;16.90;78.70
16627;DHT22;8427;52.204;7.202;2023-07-20T00:55:13;16.90;78.90
16627;DHT22;8427;52.204;7.202;2023-07-20T00:57:42;17.00;79.60
16627;DHT22;8427;52.204;7.202;2023-07-20T01:00:12;16.90;80.90
16627;DHT22;8427;52.204;7.202;2023-07-20T01:02:40;16.80;82.70
16627;DHT22;8427;52.204;7.202;2023-07-20T01:05:08;16.50;83.90
16627;DHT22;8427;52.204;7.202;2023-07-20T01:07:43;16.30;84.60
16627;DHT22;8427;52.204;7.202;2023-07-20T01:10:20;16.30;85.60
16627;DHT22;8427;52.204;7.202;2023-07-20T01:12:52;16.10;85.80
16627;DHT22;8427;52.204;7.202;2023-07-20T01:15:21;16.10;86.40
16627;DHT22;8427;52.204;7.202;2023-07-20T01:17:49;15.90;86.60
16627;DHT22;8427;52.204;7.202;2023-07-20T01:20:20;15.80;87.40
16627;DHT22;8427;52.204;7.202;2023-07-20T01:23:07;15.80;87.70
16627;DHT22;8427;52.204;7.202;2023-07-20T01:28:40;15.70;88.50
16627;DHT22;8427;52.204;7.202;2023-07-20T01:31:24;15.70;88.70
16627;DHT22;8427;52.204;7.202;2023-07-20T01:33:54;15.70;88.90
16627;DHT22;8427;52.204;7.202;2023-07-20T01:36:24;15.70;89.30
16627;DHT22;8427;52.204;7.202;2023-07-20T01:38:52;15.70;89.40
16627;DHT22;8427;52.204;7.202;2023-07-20T01:41:21;15.60;89.30
16627;DHT22;8427;52.204;7.202;2023-07-20T01:43:49;15.70;89.40
16627;DHT22;8427;52.204;7.202;2023-07-20T01:46:17;15.70;89.20
16627;DHT22;8427;52.204;7.202;2023-07-20T01:48:47;15.60;89.30
16627;DHT22;8427;52.204;7.202;2023-07-20T01:51:15;15.60;89.60
16627;DHT22;8427;52.204;7.202;2023-07-20T01:53:44;15.60;89.60
16627;DHT22;8427;52.204;7.202;2023-07-20T01:56:12;15.70;89.50
16627;DHT22;8427;52.204;7.202;2023-07-20T01:58:40;15.60;89.20
16627;DHT22;8427;52.204;7.202;2023-07-20T02:01:08;15.70;89.20
16627;DHT22;8427;52.204;7.202;2023-07-20T02:03:36;15.50;89.20
16627;DHT22;8427;52.204;7.202;2023-07-20T02:06:05;15.60;89.50
16627;DHT22;8427;52.204;7.202;2023-07-20T02:08:33;15.50;89.30
16627;DHT22;8427;52.204;7.202;2023-07-20T02:11:01;15.60;89.00
16627;DHT22;8427;52.204;7.202;2023-07-20T02:13:31;15.60;89.10
16627;DHT22;8427;52.204;7.202;2023-07-20T02:15:59;15.50;89.00
16627;DHT22;8427;52.204;7.202;2023-07-20T02:18:27;15.50;89.10
16627;DHT22;8427;52.204;7.202;2023-07-20T02:20:55;15.50;89.40
16627;DHT22;8427;52.204;7.202;2023-07-20T02:23:24;15.50;89.10
16627;DHT22;8427;52.204;7.202;2023-07-20T02:25:52;15.40;89.20
16627;DHT22;8427;52.204;7.202;2023-07-20T02:28:20;15.50;89.10
16627;DHT22;8427;52.204;7.202;2023-07-20T02:30:48;15.40;89.20
16627;DHT22;8427;52.204;7.202;2023-07-20T02:33:16;15.30;89.20
16627;DHT22;8427;52.204;7.202;2023-07-20T02:35:44;15.30;89.70
16627;DHT22;8427;52.204;7.202;2023-07-20T02:38:12;15.30;89.50
16627;DHT22;8427;52.204;7.202;2023-07-20T02:40:41;15.10;89.60
16627;DHT22;8427;52.204;7.202;2023-07-20T02:43:09;15.20;89.80
16627;DHT22;8427;52.204;7.202;2023-07-20T02:45:40;15.20;89.90
16627;DHT22;8427;52.204;7.202;2023-07-20T02:48:08;15.30;89.70
16627;DHT22;8427;52.204;7.202;2023-07-20T02:50:36;15.20;89.60
16627;DHT22;8427;52.204;7.202;2023-07-20T02:53:04;15.30;89.70
16627;DHT22;8427;52.204;7.202;2023-07-20T02:55:32;15.40;89.70
16627;DHT22;8427;52.204;7.202;2023-07-20T02:58:01;15.30;89.60
16627;DHT22;8427;52.204;7.202;2023-07-20T03:00:29;15.30;89.70
16627;DHT22;8427;52.204;7.202;2023-07-20T03:02:57;15.30;89.50
16627;DHT22;8427;52.204;7.202;2023-07-20T03:05:25;15.20;89.30
16627;DHT22;8427;52.204;7.202;2023-07-20T03:07:55;15.20;89.60
16627;DHT22;8427;52.204;7.202;2023-07-20T03:10:23;15.10;89.50
16627;DHT22;8427;52.204;7.202;2023-07-20T03:12:51;15.10;89.60
16627;DHT22;8427;52.204;7.202;2023-07-20T03:15:20;15.10;89.70
16627;DHT22;8427;52.204;7.202;2023-07-20T03:17:48;15.00;89.30
16627;DHT22;8427;52.204;7.202;2023-07-20T03:20:16;15.00;89.40
16627;DHT22;8427;52.204;7.202;2023-07-20T03:22:44;15.10;89.50
16627;DHT22;8427;52.204;7.202;2023-07-20T03:25:13;15.10;89.30
16627;DHT22;8427;52.204;7.202;2023-07-20T03:27:41;15.00;89.50
16627;DHT22;8427;52.204;7.202;2023-07-20T03:30:10;15.00;89.70
16627;DHT22;8427;52.204;7.202;2023-07-20T03:32:39;15.10;89.50
16627;DHT22;8427;52.204;7.202;2023-07-20T03:35:08;15.00;89.80
16627;DHT22;8427;52.204;7.202;2023-07-20T03:37:36;15.00;90.00
16627;DHT22;8427;52.204;7.202;2023-07-20T03:40:06;15.00;90.00
16627;DHT22;8427;52.204;7.202;2023-07-20T03:42:34;15.00;89.90
16627;DHT22;8427;52.204;7.202;2023-07-20T03:45:03;15.10;90.10
16627;DHT22;8427;52.204;7.202;2023-07-20T03:47:33;15.10;90.00
16627;DHT22;8427;52.204;7.202;2023-07-20T03:50:03;15.10;90.10
16627;DHT22;8427;52.204;7.202;2023-07-20T03:52:32;15.10;90.20
16627;DHT22;8427;52.204;7.202;2023-07-20T03:55:00;15.10;90.20
16627;DHT22;8427;52.204;7.202;2023-07-20T03:57:28;15.10;90.10
16627;DHT22;8427;52.204;7.202;2023-07-20T03:59:59;15.20;90.00
16627;DHT22;8427;52.204;7.202;2023-07-20T04:02:27;15.20;90.10
16627;DHT22;8427;52.204;7.202;2023-07-20T04:04:55;15.10;89.90
16627;DHT22;8427;52.204;7.202;2023-07-20T04:07:24;15.10;89.80
16627;DHT22;8427;52.204;7.202;2023-07-20T04:09:52;15.20;89.80
16627;DHT22;8427;52.204;7.202;2023-07-20T04:12:20;15.20;89.70
16627;DHT22;8427;52.204;7.202;2023-07-20T04:14:48;15.20;89.80
16627;DHT22;8427;52.204;7.202;2023-07-20T04:17:18;15.20;89.90
16627;DHT22;8427;52.204;7.202;2023-07-20T04:19:47;15.20;89.90
16627;DHT22;8427;52.204;7.202;2023-07-20T04:22:14;15.10;89.80
16627;DHT22;8427;52.204;7.202;2023-07-20T04:24:44;15.10;89.40
16627;DHT22;8427;52.204;7.202;2023-07-20T04:27:13;15.10;89.40
16627;DHT22;8427;52.204;7.202;2023-07-20T04:29:40;15.00;89.50
16627;DHT22;8427;52.204;7.202;2023-07-20T04:32:08;14.90;89.90
16627;DHT22;8427;52.204;7.202;2023-07-20T04:34:36;14.90;89.70
16627;DHT22;8427;52.204;7.202;2023-07-20T04:37:04;15.00;89.80
16627;DHT22;8427;52.204;7.202;2023-07-20T04:39:32;15.10;89.90
16627;DHT22;8427;52.204;7.202;2023-07-20T04:42:02;15.10;89.80
16627;DHT22;8427;52.204;7.202;2023-07-20T04:44:30;15.10;89.90
16627;DHT22;8427;52.204;7.202;2023-07-20T04:46:58;15.20;89.40
16627;DHT22;8427;52.204;7.202;2023-07-20T04:49:26;15.20;89.60
16627;DHT22;8427;52.204;7.202;2023-07-20T04:51:54;15.20;89.20
16627;DHT22;8427;52.204;7.202;2023-07-20T04:54:22;15.20;89.20
16627;DHT22;8427;52.204;7.202;2023-07-20T04:56:50;15.10;88.80
16627;DHT22;8427;52.204;7.202;2023-07-20T04:59:19;15.10;88.30
16627;DHT22;8427;52.204;7.202;2023-07-20T05:01:47;15.10;88.70
16627;DHT22;8427;52.204;7.202;2023-07-20T05:04:15;15.20;89.10
16627;DHT22;8427;52.204;7.202;2023-07-20T05:06:44;15.40;89.00
16627;DHT22;8427;52.204;7.202;2023-07-20T05:09:13;15.50;88.80
16627;DHT22;8427;52.204;7.202;2023-07-20T05:11:41;15.40;87.90
16627;DHT22;8427;52.204;7.202;2023-07-20T05:14:09;15.50;88.10
16627;DHT22;8427;52.204;7.202;2023-07-20T05:16:38;15.50;87.20
16627;DHT22;8427;52.204;7.202;2023-07-20T05:19:06;15.60;87.40
16627;DHT22;8427;52.204;7.202;2023-07-20T05:21:34;15.60;87.30
16627;DHT22;8427;52.204;7.202;2023-07-20T05:24:03;15.60;86.70
16627;DHT22;8427;52.204;7.202;2023-07-20T05:26:31;15.50;86.50
16627;DHT22;8427;52.204;7.202;2023-07-20T05:28:59;15.60;86.90
16627;DHT22;8427;52.204;7.202;2023-07-20T05:31:27;15.60;86.90
16627;DHT22;8427;52.204;7.202;2023-07-20T05:33:58;15.70;86.90
16627;DHT22;8427;52.204;7.202;2023-07-20T05:36:26;15.70;86.90
16627;DHT22;8427;52.204;7.202;2023-07-20T05:38:54;15.70;87.20
16627;DHT22;8427;52.204;7.202;2023-07-20T05:41:22;15.90;87.30
16627;DHT22;8427;52.204;7.202;2023-07-20T05:43:50;16.00;87.30
16627;DHT22;8427;52.204;7.202;2023-07-20T05:46:18;16.00;86.60
16627;DHT22;8427;52.204;7.202;2023-07-20T05:48:47;16.00;85.10
16627;DHT22;8427;52.204;7.202;2023-07-20T05:51:16;16.00;85.70
16627;DHT22;8427;52.204;7.202;2023-07-20T05:53:44;16.10;84.70
16627;DHT22;8427;52.204;7.202;2023-07-20T05:56:13;16.10;84.60
16627;DHT22;8427;52.204;7.202;2023-07-20T05:58:42;16.10;84.40
16627;DHT22;8427;52.204;7.202;2023-07-20T06:01:10;16.00;84.90
16627;DHT22;8427;52.204;7.202;2023-07-20T06:03:37;16.00;85.00
16627;DHT22;8427;52.204;7.202;2023-07-20T06:06:06;16.10;84.10
16627;DHT22;8427;52.204;7.202;2023-07-20T06:08:37;16.00;84.10
16627;DHT22;8427;52.204;7.202;2023-07-20T06:11:05;16.20;85.10
16627;DHT22;8427;52.204;7.202;2023-07-20T06:13:33;16.30;84.40
16627;DHT22;8427;52.204;7.202;2023-07-20T06:16:01;16.30;83.50
16627;DHT22;8427;52.204;7.202;2023-07-20T06:18:30;16.40;84.50
16627;DHT22;8427;52.204;7.202;2023-07-20T06:20:58;16.50;85.00
16627;DHT22;8427;52.204;7.202;2023-07-20T06:23:26;16.50;83.30
16627;DHT22;8427;52.204;7.202;2023-07-20T06:25:56;16.50;83.10
16627;DHT22;8427;52.204;7.202;2023-07-20T06:28:24;16.50;83.50
16627;DHT22;8427;52.204;7.202;2023-07-20T06:30:52;16.60;83.40
16627;DHT22;8427;52.204;7.202;2023-07-20T06:33:19;16.70;83.50
16627;DHT22;8427;52.204;7.202;2023-07-20T06:35:48;16.70;81.90
16627;DHT22;8427;52.204;7.202;2023-07-20T06:38:16;16.70;81.10
16627;DHT22;8427;52.204;7.202;2023-07-20T06:40:47;16.70;81.20
16627;DHT22;8427;52.204;7.202;2023-07-20T06:43:17;16.80;82.10
16627;DHT22;8427;52.204;7.202;2023-07-20T06:45:51;16.90;81.80
16627;DHT22;8427;52.204;7.202;2023-07-20T06:48:20;17.10;82.90
16627;DHT22;8427;52.204;7.202;2023-07-20T06:50:48;17.20;82.90
16627;DHT22;8427;52.204;7.202;2023-07-20T06:53:16;17.10;79.20
16627;DHT22;8427;52.204;7.202;2023-07-20T06:55:44;17.40;81.60
16627;DHT22;8427;52.204;7.202;2023-07-20T06:58:13;17.40;82.10
16627;DHT22;8427;52.204;7.202;2023-07-20T07:00:42;17.50;80.70
16627;DHT22;8427;52.204;7.202;2023-07-20T07:03:11;17.40;80.20
16627;DHT22;8427;52.204;7.202;2023-07-20T07:05:39;17.40;79.30
16627;DHT22;8427;52.204;7.202;2023-07-20T07:08:07;17.40;81.00
16627;DHT22;8427;52.204;7.202;2023-07-20T07:10:36;17.50;81.60
16627;DHT22;8427;52.204;7.202;2023-07-20T07:13:04;17.50;79.00
16627;DHT22;8427;52.204;7.202;2023-07-20T07:18:02;17.90;78.30
16627;DHT22;8427;52.204;7.202;2023-07-20T07:20:30;18.10;77.10
16627;DHT22;8427;52.204;7.202;2023-07-20T07:22:58;18.20;76.10
16627;DHT22;8427;52.204;7.202;2023-07-20T07:25:27;18.20;76.20
16627;DHT22;8427;52.204;7.202;2023-07-20T07:27:55;18.20;75.20
16627;DHT22;8427;52.204;7.202;2023-07-20T07:30:23;18.30;77.30
16627;DHT22;8427;52.204;7.202;2023-07-20T07:32:51;18.20;75.80
16627;DHT22;8427;52.204;7.202;2023-07-20T07:35:20;18.20;75.40
16627;DHT22;8427;52.204;7.202;2023-07-20T07:37:48;18.40;77.60
16627;DHT22;8427;52.204;7.202;2023-07-20T07:40:36;18.80;78.00
16627;DHT22;8427;52.204;7.202;2023-07-20T07:43:04;18.70;76.60
16627;DHT22;8427;52.204;7.202;2023-07-20T07:45:34;18.60;76.60
16627;DHT22;8427;52.204;7.202;2023-07-20T07:48:03;18.50;75.20
16627;DHT22;8427;52.204;7.202;2023-07-20T07:50:33;18.30;77.50
16627;DHT22;8427;52.204;7.202;2023-07-20T07:53:01;18.20;78.50
16627;DHT22;8427;52.204;7.202;2023-07-20T07:55:29;18.30;71.50
16627;DHT22;8427;52.204;7.202;2023-07-20T07:57:58;18.20;72.80
16627;DHT22;8427;52.204;7.202;2023-07-20T08:00:26;18.30;70.70
16627;DHT22;8427;52.204;7.202;2023-07-20T08:02:54;18.40;74.70
16627;DHT22;8427;52.204;7.202;2023-07-20T08:05:25;18.40;69.40
16627;DHT22;8427;52.204;7.202;2023-07-20T08:07:55;18.60;71.10
16627;DHT22;8427;52.204;7.202;2023-07-20T08:10:23;18.70;76.90
16627;DHT22;8427;52.204;7.202;2023-07-20T08:12:51;18.90;78.40
16627;DHT22;8427;52.204;7.202;2023-07-20T08:15:20;19.00;68.20
16627;DHT22;8427;52.204;7.202;2023-07-20T08:17:48;18.90;69.50
16627;DHT22;8427;52.204;7.202;2023-07-20T08:20:18;18.80;67.00
16627;DHT22;8427;52.204;7.202;2023-07-20T08:22:50;19.00;74.70
16627;DHT22;8427;52.204;7.202;2023-07-20T08:25:19;19.20;70.70
16627;DHT22;8427;52.204;7.202;2023-07-20T08:27:47;19.10;64.20
16627;DHT22;8427;52.204;7.202;2023-07-20T08:30:15;19.10;62.70
16627;DHT22;8427;52.204;7.202;2023-07-20T08:32:43;19.30;61.30
16627;DHT22;8427;52.204;7.202;2023-07-20T08:35:11;19.30;62.90
16627;DHT22;8427;52.204;7.202;2023-07-20T08:37:41;19.60;63.50
16627;DHT22;8427;52.204;7.202;2023-07-20T08:40:11;19.80;62.30
16627;DHT22;8427;52.204;7.202;2023-07-20T08:42:41;19.80;60.90
16627;DHT22;8427;52.204;7.202;2023-07-20T08:45:09;19.80;59.00
16627;DHT22;8427;52.204;7.202;2023-07-20T08:47:40;20.00;57.80
16627;DHT22;8427;52.204;7.202;2023-07-20T08:50:09;20.10;59.90
16627;DHT22;8427;52.204;7.202;2023-07-20T08:52:37;20.30;62.10
16627;DHT22;8427;52.204;7.202;2023-07-20T08:55:05;20.20;58.50
16627;DHT22;8427;52.204;7.202;2023-07-20T08:57:34;20.20;63.80
16627;DHT22;8427;52.204;7.202;2023-07-20T09:00:06;19.90;60.00
16627;DHT22;8427;52.204;7.202;2023-07-20T09:02:39;19.80;62.40
16627;DHT22;8427;52.204;7.202;2023-07-20T09:05:08;19.80;62.40
16627;DHT22;8427;52.204;7.202;2023-07-20T09:07:37;19.70;61.80
16627;DHT22;8427;52.204;7.202;2023-07-20T09:10:06;19.80;55.70
16627;DHT22;8427;52.204;7.202;2023-07-20T09:12:35;19.90;55.20
16627;DHT22;8427;52.204;7.202;2023-07-20T09:15:05;20.00;53.60
16627;DHT22;8427;52.204;7.202;2023-07-20T09:17:34;20.10;56.60
16627;DHT22;8427;52.204;7.202;2023-07-20T09:20:04;20.40;56.60
16627;DHT22;8427;52.204;7.202;2023-07-20T09:22:34;20.60;55.40
16627;DHT22;8427;52.204;7.202;2023-07-20T09:25:06;20.60;54.10
16627;DHT22;8427;52.204;7.202;2023-07-20T09:27:37;20.60;55.20
16627;DHT22;8427;52.204;7.202;2023-07-20T09:30:08;20.80;58.90
16627;DHT22;8427;52.204;7.202;2023-07-20T09:32:44;20.90;54.90
16627;DHT22;8427;52.204;7.202;2023-07-20T09:35:16;21.10;57.30
16627;DHT22;8427;52.204;7.202;2023-07-20T09:37:49;21.20;55.40
16627;DHT22;8427;52.204;7.202;2023-07-20T09:40:38;21.00;53.50
16627;DHT22;8427;52.204;7.202;2023-07-20T09:43:10;20.70;61.30
16627;DHT22;8427;52.204;7.202;2023-07-20T09:45:43;20.60;54.00
16627;DHT22;8427;52.204;7.202;2023-07-20T09:48:14;20.60;55.90
16627;DHT22;8427;52.204;7.202;2023-07-20T09:50:49;20.90;61.90
16627;DHT22;8427;52.204;7.202;2023-07-20T09:53:18;21.00;52.90
16627;DHT22;8427;52.204;7.202;2023-07-20T09:55:47;21.20;62.50
16627;DHT22;8427;52.204;7.202;2023-07-20T09:58:16;21.30;55.80
16627;DHT22;8427;52.204;7.202;2023-07-20T10:00:46;21.20;53.60
16627;DHT22;8427;52.204;7.202;2023-07-20T10:03:21;21.00;52.40
16627;DHT22;8427;52.204;7.202;2023-07-20T10:05:54;21.00;51.10
16627;DHT22;8427;52.204;7.202;2023-07-20T10:08:25;21.10;48.70
16627;DHT22;8427;52.204;7.202;2023-07-20T10:10:57;21.20;47.80
16627;DHT22;8427;52.204;7.202;2023-07-20T10:13:29;21.20;49.90
16627;DHT22;8427;52.204;7.202;2023-07-20T10:16:02;21.20;52.80
16627;DHT22;8427;52.204;7.202;2023-07-20T10:18:38;21.30;51.40
16627;DHT22;8427;52.204;7.202;2023-07-20T10:21:09;21.50;50.90
16627;DHT22;8427;52.204;7.202;2023-07-20T10:23:40;21.70;51.20
16627;DHT22;8427;52.204;7.202;2023-07-20T10:26:09;21.70;52.80
16627;DHT22;8427;52.204;7.202;2023-07-20T10:28:38;21.60;54.90
16627;DHT22;8427;52.204;7.202;2023-07-20T10:31:11;21.80;52.50
16627;DHT22;8427;52.204;7.202;2023-07-20T10:33:40;21.80;50.60
16627;DHT22;8427;52.204;7.202;2023-07-20T10:36:10;21.60;48.20
16627;DHT22;8427;52.204;7.202;2023-07-20T10:38:40;21.70;49.70
16627;DHT22;8427;52.204;7.202;2023-07-20T10:41:27;21.80;52.80
16627;DHT22;8427;52.204;7.202;2023-07-20T10:43:58;22.30;49.70
16627;DHT22;8427;52.204;7.202;2023-07-20T10:49:14;22.40;46.80
16627;DHT22;8427;52.204;7.202;2023-07-20T10:51:43;22.40;48.90
16627;DHT22;8427;52.204;7.202;2023-07-20T10:57:21;22.30;45.40
16627;DHT22;8427;52.204;7.202;2023-07-20T10:59:49;22.00;45.40
16627;DHT22;8427;52.204;7.202;2023-07-20T11:02:17;22.00;49.20
16627;DHT22;8427;52.204;7.202;2023-07-20T11:04:47;22.40;48.50
16627;DHT22;8427;52.204;7.202;2023-07-20T11:07:16;22.60;46.60
16627;DHT22;8427;52.204;7.202;2023-07-20T11:09:45;22.80;44.90
16627;DHT22;8427;52.204;7.202;2023-07-20T11:12:16;22.90;45.90
16627;DHT22;8427;52.204;7.202;2023-07-20T11:14:53;23.00;46.60
16627;DHT22;8427;52.204;7.202;2023-07-20T11:17:22;22.60;47.90
16627;DHT22;8427;52.204;7.202;2023-07-20T11:19:57;22.50;46.10
16627;DHT22;8427;52.204;7.202;2023-07-20T11:22:30;22.70;45.70
16627;DHT22;8427;52.204;7.202;2023-07-20T11:24:58;22.90;46.80
16627;DHT22;8427;52.204;7.202;2023-07-20T11:27:26;23.00;46.10
16627;DHT22;8427;52.204;7.202;2023-07-20T11:29:55;22.90;45.90
16627;DHT22;8427;52.204;7.202;2023-07-20T11:32:25;22.80;46.40
16627;DHT22;8427;52.204;7.202;2023-07-20T11:34:53;23.00;47.40
16627;DHT22;8427;52.204;7.202;2023-07-20T11:37:22;23.00;45.90
16627;DHT22;8427;52.204;7.202;2023-07-20T11:39:54;23.00;44.60
16627;DHT22;8427;52.204;7.202;2023-07-20T11:45:02;23.30;48.60
16627;DHT22;8427;52.204;7.202;2023-07-20T11:47:32;23.40;46.80
16627;DHT22;8427;52.204;7.202;2023-07-20T11:50:02;23.40;44.80
16627;DHT22;8427;52.204;7.202;2023-07-20T11:52:32;23.50;44.80
16627;DHT22;8427;52.204;7.202;2023-07-20T11:55:01;23.60;44.10
16627;DHT22;8427;52.204;7.202;2023-07-20T11:57:29;23.30;43.20
16627;DHT22;8427;52.204;7.202;2023-07-20T11:59:57;23.10;45.50
16627;DHT22;8427;52.204;7.202;2023-07-20T12:02:27;23.20;45.10
16627;DHT22;8427;52.204;7.202;2023-07-20T12:04:56;23.30;41.40
16627;DHT22;8427;52.204;7.202;2023-07-20T12:07:25;23.30;42.00
16627;DHT22;8427;52.204;7.202;2023-07-20T12:10:04;23.60;41.60
16627;DHT22;8427;52.204;7.202;2023-07-20T12:12:32;23.80;46.60
16627;DHT22;8427;52.204;7.202;2023-07-20T12:15:13;23.70;51.50
16627;DHT22;8427;52.204;7.202;2023-07-20T12:17:44;23.90;52.10
16627;DHT22;8427;52.204;7.202;2023-07-20T12:20:12;23.60;49.50
16627;DHT22;8427;52.204;7.202;2023-07-20T12:22:40;23.60;54.10
16627;DHT22;8427;52.204;7.202;2023-07-20T12:25:10;23.60;52.00
16627;DHT22;8427;52.204;7.202;2023-07-20T12:27:38;23.30;51.70
16627;DHT22;8427;52.204;7.202;2023-07-20T12:30:07;23.30;49.60
16627;DHT22;8427;52.204;7.202;2023-07-20T12:32:35;23.30;51.50
16627;DHT22;8427;52.204;7.202;2023-07-20T12:35:03;23.30;54.50
16627;DHT22;8427;52.204;7.202;2023-07-20T12:37:32;23.40;50.40
16627;DHT22;8427;52.204;7.202;2023-07-20T12:40:00;23.50;49.50
16627;DHT22;8427;52.204;7.202;2023-07-20T12:42:30;23.40;51.40
16627;DHT22;8427;52.204;7.202;2023-07-20T12:44:58;23.60;53.20
16627;DHT22;8427;52.204;7.202;2023-07-20T12:47:26;23.60;50.80
16627;DHT22;8427;52.204;7.202;2023-07-20T12:49:54;23.40;53.70
16627;DHT22;8427;52.204;7.202;2023-07-20T12:52:22;23.40;51.80
16627;DHT22;8427;52.204;7.202;2023-07-20T12:54:50;23.30;52.70
16627;DHT22;8427;52.204;7.202;2023-07-20T12:57:18;23.30;49.70
16627;DHT22;8427;52.204;7.202;2023-07-20T12:59:47;22.90;50.40
16627;DHT22;8427;52.204;7.202;2023-07-20T13:02:15;22.80;52.80
16627;DHT22;8427;52.204;7.202;2023-07-20T13:04:43;23.00;52.50
16627;DHT22;8427;52.204;7.202;2023-07-20T13:07:11;23.00;52.20
16627;DHT22;8427;52.204;7.202;2023-07-20T13:09:42;23.00;50.20
16627;DHT22;8427;52.204;7.202;2023-07-20T13:12:10;22.90;48.90
16627;DHT22;8427;52.204;7.202;2023-07-20T13:14:38;23.10;52.80
16627;DHT22;8427;52.204;7.202;2023-07-20T13:17:07;23.20;52.40
16627;DHT22;8427;52.204;7.202;2023-07-20T13:19:36;23.20;52.00
16627;DHT22;8427;52.204;7.202;2023-07-20T13:22:04;23.10;47.40
16627;DHT22;8427;52.204;7.202;2023-07-20T13:24:32;23.20;46.50
16627;DHT22;8427;52.204;7.202;2023-07-20T13:27:00;23.20;50.20
16627;DHT22;8427;52.204;7.202;2023-07-20T13:29:28;23.20;47.10
16627;DHT22;8427;52.204;7.202;2023-07-20T13:31:56;23.20;46.00
16627;DHT22;8427;52.204;7.202;2023-07-20T13:34:26;23.10;46.90
16627;DHT22;8427;52.204;7.202;2023-07-20T13:36:57;23.00;46.50
16627;DHT22;8427;52.204;7.202;2023-07-20T13:39:25;23.00;45.90
16627;DHT22;8427;52.204;7.202;2023-07-20T13:41:54;23.10;49.60
16627;DHT22;8427;52.204;7.202;2023-07-20T13:44:22;23.20;45.10
16627;DHT22;8427;52.204;7.202;2023-07-20T13:46:50;23.20;44.20
16627;DHT22;8427;52.204;7.202;2023-07-20T13:49:39;23.30;45.40
16627;DHT22;8427;52.204;7.202;2023-07-20T13:52:11;23.40;45.30
16627;DHT22;8427;52.204;7.202;2023-07-20T13:54:41;23.40;46.30
16627;DHT22;8427;52.204;7.202;2023-07-20T13:57:12;23.50;46.80
16627;DHT22;8427;52.204;7.202;2023-07-20T13:59:41;23.40;44.70
16627;DHT22;8427;52.204;7.202;2023-07-20T14:02:09;23.50;46.70
16627;DHT22;8427;52.204;7.202;2023-07-20T14:04:42;23.50;44.60
16627;DHT22;8427;52.204;7.202;2023-07-20T14:07:10;23.60;48.60
16627;DHT22;8427;52.204;7.202;2023-07-20T14:09:43;23.70;48.40
16627;DHT22;8427;52.204;7.202;2023-07-20T14:12:13;23.80;47.30
16627;DHT22;8427;52.204;7.202;2023-07-20T14:14:45;23.70;46.30
16627;DHT22;8427;52.204;7.202;2023-07-20T14:17:13;23.80;48.90
16627;DHT22;8427;52.204;7.202;2023-07-20T14:19:42;23.80;48.80
16627;DHT22;8427;52.204;7.202;2023-07-20T14:22:10;23.80;49.50
16627;DHT22;8427;52.204;7.202;2023-07-20T14:24:38;23.70;50.90
16627;DHT22;8427;52.204;7.202;2023-07-20T14:27:06;23.60;48.50
16627;DHT22;8427;52.204;7.202;2023-07-20T14:29:34;23.40;46.10
16627;DHT22;8427;52.204;7.202;2023-07-20T14:32:03;23.30;46.40
16627;DHT22;8427;52.204;7.202;2023-07-20T14:34:32;23.40;51.40
16627;DHT22;8427;52.204;7.202;2023-07-20T14:37:06;23.30;49.90
16627;DHT22;8427;52.204;7.202;2023-07-20T14:39:34;23.10;47.70
16627;DHT22;8427;52.204;7.202;2023-07-20T14:42:02;23.00;47.30
16627;DHT22;8427;52.204;7.202;2023-07-20T14:46:59;22.80;45.60
16627;DHT22;8427;52.204;7.202;2023-07-20T14:49:39;22.60;46.40
16627;DHT22;8427;52.204;7.202;2023-07-20T14:52:08;22.80;49.60
16627;DHT22;8427;52.204;7.202;2023-07-20T14:54:39;22.70;47.30
16627;DHT22;8427;52.204;7.202;2023-07-20T14:57:07;22.70;46.80
16627;DHT22;8427;52.204;7.202;2023-07-20T14:59:40;22.70;49.90
16627;DHT22;8427;52.204;7.202;2023-07-20T15:02:09;22.80;47.00
16627;DHT22;8427;52.204;7.202;2023-07-20T15:04:37;22.80;51.00
16627;DHT22;8427;52.204;7.202;2023-07-20T15:07:05;23.00;49.00
16627;DHT22;8427;52.204;7.202;2023-07-20T15:09:34;23.30;49.20
16627;DHT22;8427;52.204;7.202;2023-07-20T15:12:02;23.60;48.40
16627;DHT22;8427;52.204;7.202;2023-07-20T15:14:30;23.60;49.50
16627;DHT22;8427;52.204;7.202;2023-07-20T15:16:58;23.50;50.40
16627;DHT22;8427;52.204;7.202;2023-07-20T15:19:26;23.60;48.10
16627;DHT22;8427;52.204;7.202;2023-07-20T15:21:54;23.50;49.30
16627;DHT22;8427;52.204;7.202;2023-07-20T15:24:22;23.40;47.70
16627;DHT22;8427;52.204;7.202;2023-07-20T15:26:51;23.70;53.50
16627;DHT22;8427;52.204;7.202;2023-07-20T15:29:19;23.80;50.10
16627;DHT22;8427;52.204;7.202;2023-07-20T15:31:50;23.80;49.90
16627;DHT22;8427;52.204;7.202;2023-07-20T15:34:21;23.70;49.90
16627;DHT22;8427;52.204;7.202;2023-07-20T15:36:49;23.50;50.90
16627;DHT22;8427;52.204;7.202;2023-07-20T15:39:17;23.80;50.60
16627;DHT22;8427;52.204;7.202;2023-07-20T15:41:45;24.10;45.40
16627;DHT22;8427;52.204;7.202;2023-07-20T15:44:15;24.70;45.00
16627;DHT22;8427;52.204;7.202;2023-07-20T15:46:43;25.30;43.50
16627;DHT22;8427;52.204;7.202;2023-07-20T15:49:11;25.70;41.40
16627;DHT22;8427;52.204;7.202;2023-07-20T15:51:40;26.80;41.60
16627;DHT22;8427;52.204;7.202;2023-07-20T15:54:08;27.50;40.40
16627;DHT22;8427;52.204;7.202;2023-07-20T15:56:37;27.90;38.70
16627;DHT22;8427;52.204;7.202;2023-07-20T15:59:07;28.60;38.40
16627;DHT22;8427;52.204;7.202;2023-07-20T16:01:37;28.10;37.30
16627;DHT22;8427;52.204;7.202;2023-07-20T16:04:05;27.30;39.80
16627;DHT22;8427;52.204;7.202;2023-07-20T16:06:33;26.10;39.40
16627;DHT22;8427;52.204;7.202;2023-07-20T16:09:02;25.40;43.40
16627;DHT22;8427;52.204;7.202;2023-07-20T16:11:30;25.00;45.30
16627;DHT22;8427;52.204;7.202;2023-07-20T16:14:02;24.40;48.20